createdAt,value
2019-05-22T00:01:18.222Z,25.23
2019-05-22T00:04:12.119Z,28.63
2019-05-22T00:06:44.736Z,27.40
2019-05-22T00:09:27.572Z,29.43
2019-05-22T00:11:59.978Z,29.10
2019-05-22T00:14:30.988Z,32.27
2019-05-22T00:17:02.995Z,30.13
2019-05-22T00:19:35.032Z,28.83
2019-05-22T00:22:11.337Z,35.67
2019-05-22T00:24:44.119Z,27.60
2019-05-22T00:27:16.812Z,30.57
2019-05-22T00:29:50.236Z,33.83
2019-05-22T00:32:22.660Z,30.23
2019-05-22T00:34:55.942Z,33.13
2019-05-22T00:37:29.076Z,28.37
2019-05-22T00:40:00.677Z,28.77
2019-05-22T00:42:32.858Z,29.33
2019-05-22T00:45:05.747Z,31.73
2019-05-22T00:47:36.781Z,30.93
2019-05-22T00:50:09.442Z,32.27
2019-05-22T00:52:48.793Z,32.10
2019-05-22T00:55:48.020Z,31.70
2019-05-22T00:58:27.076Z,33.17
2019-05-22T01:01:01.795Z,32.27
2019-05-22T01:03:36.243Z,34.30
2019-05-22T01:06:09.609Z,32.53
2019-05-22T01:08:42.252Z,32.30
2019-05-22T01:11:15.231Z,31.50
2019-05-22T01:13:46.904Z,30.93
2019-05-22T01:16:19.379Z,30.27
2019-05-22T01:18:52.267Z,30.07
2019-05-22T01:21:26.523Z,32.10
2019-05-22T01:23:59.885Z,34.63
2019-05-22T01:26:32.480Z,32.07
2019-05-22T01:29:04.370Z,35.13
2019-05-22T01:31:44.565Z,33.03
2019-05-22T01:34:24.432Z,31.87
2019-05-22T01:37:02.212Z,37.13
2019-05-22T01:40:09.100Z,34.77
2019-05-22T01:42:42.197Z,39.83
2019-05-22T01:45:18.434Z,35.37
2019-05-22T01:47:54.957Z,35.43
2019-05-22T01:50:53.500Z,37.47
2019-05-22T01:53:32.777Z,37.70
2019-05-22T01:56:08.015Z,37.30
2019-05-22T01:58:42.454Z,37.63
2019-05-22T02:01:18.588Z,38.23
2019-05-22T02:03:51.805Z,35.50
2019-05-22T02:06:24.953Z,35.07
2019-05-22T02:09:11.543Z,42.30
2019-05-22T02:11:45.839Z,39.80
2019-05-22T02:14:18.776Z,36.53
2019-05-22T02:16:56.967Z,43.33
2019-05-22T02:19:24.431Z,37.93
2019-05-22T02:21:56.163Z,41.83
2019-05-22T02:24:28.744Z,40.10
2019-05-22T02:27:01.695Z,43.33
2019-05-22T02:29:33.012Z,40.40
2019-05-22T02:32:06.533Z,42.53
2019-05-22T02:34:39.049Z,45.97
2019-05-22T02:37:11.339Z,41.63
2019-05-22T02:39:42.924Z,37.17
2019-05-22T02:42:19.085Z,37.67
2019-05-22T02:44:51.373Z,36.43
2019-05-22T02:47:25.025Z,35.37
2019-05-22T02:49:57.326Z,37.70
2019-05-22T02:52:28.746Z,33.80
2019-05-22T02:55:00.408Z,36.20
2019-05-22T02:57:31.708Z,35.73
2019-05-22T03:00:03.031Z,33.80
2019-05-22T03:02:39.110Z,30.77
2019-05-22T03:05:10.967Z,36.63
2019-05-22T03:07:43.446Z,35.43
2019-05-22T03:10:18.216Z,29.20
2019-05-22T03:12:51.495Z,33.77
2019-05-22T03:15:26.177Z,34.57
2019-05-22T03:18:02.580Z,32.73
2019-05-22T03:20:37.828Z,34.13
2019-05-22T03:23:41.033Z,31.70
2019-05-22T03:26:13.279Z,31.57
2019-05-22T03:28:45.889Z,37.23
2019-05-22T03:31:18.312Z,32.70
2019-05-22T03:33:50.756Z,32.90
2019-05-22T03:36:22.262Z,32.63
2019-05-22T03:38:55.557Z,28.20
2019-05-22T03:41:27.772Z,30.10
2019-05-22T03:43:59.234Z,28.43
2019-05-22T03:46:42.464Z,27.13
2019-05-22T03:49:29.884Z,24.93
2019-05-22T03:51:52.756Z,30.57
2019-05-22T03:54:25.707Z,29.43
2019-05-22T03:56:57.317Z,29.03
2019-05-22T03:59:28.336Z,26.57
2019-05-22T04:01:59.641Z,29.93
2019-05-22T04:04:37.117Z,28.63
2019-05-22T04:07:11.462Z,29.30
2019-05-22T04:09:44.673Z,30.90
2019-05-22T04:12:16.082Z,29.47
2019-05-22T04:14:47.056Z,30.90
2019-05-22T04:17:19.141Z,32.97
2019-05-22T04:19:51.973Z,35.07
2019-05-22T04:22:23.050Z,31.73
2019-05-22T04:24:54.665Z,32.43
2019-05-22T04:27:26.074Z,32.93
2019-05-22T04:29:57.147Z,31.37
2019-05-22T04:32:31.990Z,34.80
2019-05-22T04:35:04.444Z,31.23
2019-05-22T04:37:49.315Z,31.47
2019-05-22T04:40:54.337Z,30.43
2019-05-22T04:43:28.572Z,30.77
2019-05-22T04:46:03.094Z,29.77
2019-05-22T04:48:36.385Z,30.60
2019-05-22T04:51:28.271Z,26.77
2019-05-22T04:54:00.524Z,29.13
2019-05-22T04:56:31.550Z,30.07
2019-05-22T04:59:03.662Z,27.00
2019-05-22T05:01:34.843Z,27.20
2019-05-22T05:04:06.817Z,24.10
2019-05-22T05:06:38.739Z,26.43
2019-05-22T05:09:12.127Z,25.77
2019-05-22T05:11:43.708Z,23.87
2019-05-22T05:14:14.719Z,26.13
2019-05-22T05:16:46.872Z,26.03
2019-05-22T05:19:18.062Z,23.33
2019-05-22T05:21:50.313Z,27.63
2019-05-22T05:24:21.329Z,23.13
2019-05-22T05:26:53.061Z,21.30
2019-05-22T05:29:29.362Z,25.20
2019-05-22T05:32:01.273Z,24.30
2019-05-22T05:34:59.879Z,24.67
2019-05-22T05:37:31.542Z,27.03
2019-05-22T05:40:44.522Z,22.07
2019-05-22T05:43:19.733Z,23.40
2019-05-22T05:45:51.747Z,24.73
2019-05-22T05:48:26.122Z,23.17
2019-05-22T05:51:39.238Z,22.63
2019-05-22T05:54:14.101Z,23.23
2019-05-22T05:56:48.757Z,24.37
2019-05-22T05:59:21.828Z,21.43
2019-05-22T06:01:54.951Z,23.40
2019-05-22T06:04:45.479Z,26.83
2019-05-22T06:07:22.429Z,30.30
2019-05-22T06:10:40.802Z,23.10
2019-05-22T06:13:12.814Z,24.20
2019-05-22T06:16:29.113Z,29.20
2019-05-22T06:19:00.482Z,24.80
2019-05-22T06:21:32.069Z,26.33
2019-05-22T06:24:25.288Z,23.73
2019-05-22T06:27:19.120Z,22.57
2019-05-22T06:29:57.263Z,23.53
2019-05-22T06:33:14.872Z,24.97
2019-05-22T06:35:49.770Z,26.97
2019-05-22T06:39:04.382Z,27.17
2019-05-22T06:41:40.920Z,26.07
2019-05-22T06:44:46.165Z,27.93
2019-05-22T06:47:23.249Z,25.27
2019-05-22T06:49:59.299Z,22.13
2019-05-22T06:52:30.405Z,22.83
2019-05-22T06:55:02.384Z,25.53
2019-05-22T06:57:37.352Z,26.70
2019-05-22T07:00:21.593Z,26.30
2019-05-22T07:02:52.862Z,27.33
2019-05-22T07:05:24.557Z,26.40
2019-05-22T07:07:56.813Z,27.23
2019-05-22T07:10:29.278Z,27.53
2019-05-22T07:13:01.055Z,25.23
2019-05-22T07:15:41.800Z,26.00
2019-05-22T07:18:15.181Z,26.77
2019-05-22T07:20:48.654Z,28.93
2019-05-22T07:23:23.521Z,26.60
2019-05-22T07:25:54.672Z,26.27
2019-05-22T07:28:26.996Z,28.07
2019-05-22T07:30:58.504Z,29.07
2019-05-22T07:33:30.165Z,25.90
2019-05-22T07:36:12.101Z,25.17
2019-05-22T07:38:35.781Z,27.67
2019-05-22T07:41:08.746Z,27.50
2019-05-22T07:43:41.601Z,25.50
2019-05-22T07:46:14.352Z,26.97
2019-05-22T07:48:46.341Z,28.43
2019-05-22T07:51:19.151Z,27.43
2019-05-22T07:53:50.433Z,23.87
2019-05-22T07:56:22.946Z,25.23
2019-05-22T07:58:58.855Z,25.80
2019-05-22T08:01:28.326Z,24.57
2019-05-22T08:04:02.931Z,25.47
2019-05-22T08:06:33.920Z,22.47
2019-05-22T08:09:08.082Z,22.20
2019-05-22T08:11:39.868Z,21.13
2019-05-22T08:14:12.886Z,21.53
2019-05-22T08:16:44.285Z,22.93
2019-05-22T08:19:15.671Z,23.17
2019-05-22T08:21:47.018Z,21.10
2019-05-22T08:24:19.278Z,18.43
2019-05-22T08:26:54.497Z,19.93
2019-05-22T08:29:24.265Z,20.20
2019-05-22T08:31:55.868Z,20.30
2019-05-22T08:34:27.412Z,16.53
2019-05-22T08:36:59.826Z,18.00
2019-05-22T08:39:31.758Z,19.43
2019-05-22T08:42:05.242Z,21.57
2019-05-22T08:44:36.479Z,18.20
2019-05-22T08:47:08.189Z,17.80
2019-05-22T08:49:41.151Z,15.43
2019-05-22T08:52:22.946Z,17.33
2019-05-22T08:54:47.506Z,17.90
2019-05-22T08:57:21.352Z,19.00
2019-05-22T08:59:53.086Z,17.50
2019-05-22T09:02:25.182Z,15.43
2019-05-22T09:04:56.800Z,15.03
2019-05-22T09:07:28.681Z,17.47
2019-05-22T09:09:59.699Z,16.27
2019-05-22T09:12:31.654Z,14.03
2019-05-22T09:15:02.742Z,16.33
2019-05-22T09:17:33.936Z,13.10
2019-05-22T09:20:07.278Z,14.53
2019-05-22T09:22:41.019Z,14.28
2019-05-22T09:25:14.205Z,12.60
2019-05-22T09:27:45.631Z,15.17
2019-05-22T09:30:16.894Z,13.73
2019-05-22T09:32:48.347Z,14.27
2019-05-22T09:35:20.434Z,12.83
2019-05-22T09:37:51.525Z,12.10
2019-05-22T09:40:22.642Z,12.83
2019-05-22T09:42:53.851Z,13.23
2019-05-22T09:45:25.292Z,16.07
2019-05-22T09:47:57.513Z,16.02
2019-05-22T09:50:29.115Z,14.97
2019-05-22T09:53:00.284Z,13.27
2019-05-22T09:55:47.022Z,11.12
2019-05-22T09:58:15.445Z,10.03
2019-05-22T10:00:46.945Z,9.25
2019-05-22T10:03:18.607Z,11.03
2019-05-22T10:05:49.833Z,10.82
2019-05-22T10:08:26.856Z,14.13
2019-05-22T10:11:00.213Z,8.80
2019-05-22T10:13:32.163Z,10.58
2019-05-22T10:16:04.117Z,9.58
2019-05-22T10:18:35.518Z,10.68
2019-05-22T10:21:06.751Z,10.82
2019-05-22T10:23:39.591Z,12.07
2019-05-22T10:26:11.791Z,12.47
2019-05-22T10:28:42.878Z,10.40
2019-05-22T10:31:16.728Z,8.65
2019-05-22T10:33:47.222Z,9.48
2019-05-22T10:36:18.717Z,10.32
2019-05-22T10:38:50.065Z,9.10
2019-05-22T10:41:22.477Z,10.72
2019-05-22T10:43:54.035Z,9.38
2019-05-22T10:46:25.156Z,14.87
2019-05-22T10:48:56.849Z,9.08
2019-05-22T10:51:28.454Z,9.28
2019-05-22T10:54:00.016Z,13.60
2019-05-22T10:56:31.360Z,10.82
2019-05-22T10:59:02.931Z,11.65
2019-05-22T11:01:47.299Z,11.85
2019-05-22T11:04:19.870Z,10.63
2019-05-22T11:06:51.665Z,11.80
2019-05-22T11:09:23.662Z,11.65
2019-05-22T11:11:55.476Z,11.48
2019-05-22T11:14:27.299Z,14.95
2019-05-22T11:17:01.443Z,11.38
2019-05-22T11:19:32.816Z,16.20
2019-05-22T11:22:04.906Z,11.03
2019-05-22T11:24:36.295Z,13.78
2019-05-22T11:27:08.043Z,14.43
2019-05-22T11:29:40.390Z,15.98
2019-05-22T11:32:12.786Z,13.48
2019-05-22T11:34:43.871Z,13.70
2019-05-22T11:37:15.927Z,15.25
2019-05-22T11:39:47.905Z,13.62
2019-05-22T11:42:19.942Z,14.70
2019-05-22T11:44:51.024Z,17.27
2019-05-22T11:47:22.692Z,12.28
2019-05-22T11:49:54.200Z,12.78
2019-05-22T11:52:25.320Z,13.05
2019-05-22T11:54:56.270Z,14.10
2019-05-22T11:57:27.562Z,15.00
2019-05-22T11:59:58.802Z,15.53
2019-05-22T12:02:30.163Z,15.05
2019-05-22T12:05:01.832Z,16.37
2019-05-22T12:07:33.124Z,13.10
2019-05-22T12:10:05.864Z,13.93
2019-05-22T12:12:38.304Z,10.05
2019-05-22T12:15:11.779Z,8.48
2019-05-22T12:17:43.529Z,9.20
2019-05-22T12:20:16.441Z,10.58
2019-05-22T12:22:47.746Z,8.40
2019-05-22T12:25:19.551Z,9.38
2019-05-22T12:27:51.071Z,8.18
2019-05-22T12:30:24.520Z,8.73
2019-05-22T12:32:56.211Z,8.45
2019-05-22T12:35:28.433Z,6.67
2019-05-22T12:38:00.645Z,5.92
2019-05-22T12:40:36.013Z,5.58
2019-05-22T12:43:07.608Z,8.73
2019-05-22T12:45:39.300Z,8.10
2019-05-22T12:48:11.733Z,7.35
2019-05-22T12:50:43.217Z,8.03
2019-05-22T12:53:17.258Z,8.45
2019-05-22T12:55:48.579Z,10.25
2019-05-22T12:58:20.740Z,6.75
2019-05-22T13:00:51.861Z,6.20
2019-05-22T13:03:23.483Z,7.00
2019-05-22T13:05:55.223Z,6.53
2019-05-22T13:08:27.051Z,6.90
2019-05-22T13:10:59.007Z,8.10
2019-05-22T13:13:30.384Z,8.18
2019-05-22T13:16:02.140Z,8.13
2019-05-22T13:18:35.574Z,7.47
2019-05-22T13:21:08.098Z,7.17
2019-05-22T13:23:44.022Z,6.60
2019-05-22T13:26:16.541Z,6.90
2019-05-22T13:28:49.064Z,7.80
2019-05-22T13:31:20.745Z,6.35
2019-05-22T13:33:53.564Z,7.15
2019-05-22T13:36:25.115Z,11.90
2019-05-22T13:38:56.672Z,5.45
2019-05-22T13:41:28.364Z,6.80
2019-05-22T13:44:00.241Z,6.00
2019-05-22T13:46:31.524Z,5.95
2019-05-22T13:49:02.907Z,11.10
2019-05-22T13:51:35.691Z,9.63
2019-05-22T13:54:07.715Z,10.38
2019-05-22T13:56:40.437Z,8.20
2019-05-22T13:59:12.483Z,10.20
2019-05-22T14:01:44.236Z,10.70
2019-05-22T14:04:15.489Z,7.30
2019-05-22T14:06:46.547Z,9.98
2019-05-22T14:09:21.366Z,10.18
2019-05-22T14:11:54.543Z,11.53
2019-05-22T14:14:25.657Z,12.75
2019-05-22T14:16:56.778Z,10.18
2019-05-22T14:19:27.809Z,11.65
2019-05-22T14:21:59.095Z,12.43
2019-05-22T14:24:30.117Z,14.73
2019-05-22T14:27:01.231Z,11.68
2019-05-22T14:29:32.567Z,14.55
2019-05-22T14:32:05.651Z,11.97
2019-05-22T14:34:36.917Z,14.98
2019-05-22T14:37:19.669Z,16.07
2019-05-22T14:39:51.077Z,15.72
2019-05-22T14:42:22.898Z,17.85
2019-05-22T14:44:54.214Z,18.95
2019-05-22T14:47:26.114Z,14.98
2019-05-22T14:49:57.389Z,17.15
2019-05-22T14:52:29.458Z,13.72
2019-05-22T14:55:00.555Z,13.05
2019-05-22T14:57:31.702Z,15.20
2019-05-22T15:00:02.867Z,13.45
2019-05-22T15:02:34.340Z,11.73
2019-05-22T15:05:06.587Z,12.15
2019-05-22T15:07:38.242Z,6.80
2019-05-22T15:10:10.181Z,9.80
2019-05-22T15:12:41.338Z,10.20
2019-05-22T15:15:13.416Z,6.35
2019-05-22T15:17:45.936Z,6.80
2019-05-22T15:20:21.388Z,5.17
2019-05-22T15:22:56.018Z,4.45
2019-05-22T15:25:27.349Z,3.17
2019-05-22T15:27:58.658Z,6.30
2019-05-22T15:30:30.431Z,5.92
2019-05-22T15:33:01.827Z,4.70
2019-05-22T15:35:33.338Z,5.15
2019-05-22T15:38:04.656Z,7.40
2019-05-22T15:40:35.916Z,6.28
2019-05-22T15:43:08.691Z,4.87
2019-05-22T15:45:42.352Z,5.17
2019-05-22T15:48:20.236Z,3.50
2019-05-22T15:50:53.814Z,3.87
2019-05-22T15:53:26.700Z,3.58
2019-05-22T15:56:00.482Z,1.85
2019-05-22T15:58:32.668Z,1.67
2019-05-22T16:01:06.112Z,3.40
2019-05-22T16:03:38.142Z,2.58
2019-05-22T16:06:10.568Z,4.17
2019-05-22T16:08:43.501Z,1.45
2019-05-22T16:11:16.891Z,2.25
2019-05-22T16:14:01.278Z,2.00
2019-05-22T16:16:34.358Z,1.25
2019-05-22T16:19:08.987Z,1.40
2019-05-22T16:21:45.619Z,2.12
2019-05-22T16:24:17.513Z,5.67
2019-05-22T16:26:49.732Z,4.75
2019-05-22T16:29:23.941Z,3.22
2019-05-22T16:31:56.879Z,1.82
2019-05-22T16:34:29.304Z,1.85
2019-05-22T16:37:03.876Z,3.40
2019-05-22T16:39:36.180Z,4.58
2019-05-22T16:42:07.997Z,5.25
2019-05-22T16:44:39.736Z,3.45
2019-05-22T16:47:12.233Z,1.52
2019-05-22T16:49:43.717Z,4.78
2019-05-22T16:52:15.607Z,4.78
2019-05-22T16:54:49.232Z,3.02
2019-05-22T16:57:21.560Z,2.47
2019-05-22T16:59:53.028Z,2.27
2019-05-22T17:02:25.942Z,4.22
2019-05-22T17:04:57.393Z,3.27
2019-05-22T17:07:28.695Z,3.42
2019-05-22T17:10:00.495Z,2.90
2019-05-22T17:12:32.061Z,5.97
2019-05-22T17:15:06.000Z,3.77
2019-05-22T17:17:37.251Z,2.02
2019-05-22T17:20:12.307Z,2.10
2019-05-22T17:22:44.185Z,1.75
2019-05-22T17:25:16.981Z,1.47
2019-05-22T17:27:49.559Z,3.22
2019-05-22T17:30:22.970Z,2.05
2019-05-22T17:32:54.864Z,1.70
2019-05-22T17:35:26.857Z,3.40
2019-05-22T17:38:00.129Z,1.52
2019-05-22T17:40:32.656Z,4.65
2019-05-22T17:43:03.848Z,3.15
2019-05-22T17:45:36.474Z,1.82
2019-05-22T17:48:07.382Z,2.08
2019-05-22T17:50:39.330Z,2.87
2019-05-22T17:53:11.493Z,2.55
2019-05-22T17:55:42.673Z,2.45
2019-05-22T17:58:13.732Z,3.00
2019-05-22T18:00:47.108Z,2.12
2019-05-22T18:03:20.048Z,2.20
2019-05-22T18:05:51.059Z,3.10
2019-05-22T18:08:23.274Z,2.72
2019-05-22T18:10:55.110Z,1.50
2019-05-22T18:13:27.095Z,1.60
2019-05-22T18:15:58.690Z,1.70
2019-05-22T18:18:29.856Z,4.28
2019-05-22T18:21:02.269Z,2.87
2019-05-22T18:23:33.557Z,6.50
2019-05-22T18:26:04.720Z,4.30
2019-05-22T18:28:35.759Z,7.78
2019-05-22T18:31:06.746Z,2.37
2019-05-22T18:33:38.038Z,2.27
2019-05-22T18:36:09.007Z,1.92
2019-05-22T18:38:40.613Z,1.82
2019-05-22T18:41:11.689Z,1.67
2019-05-22T18:43:43.062Z,5.20
2019-05-22T18:46:14.314Z,3.58
2019-05-22T18:48:48.205Z,0.93
2019-05-22T18:51:18.343Z,1.92
2019-05-22T18:53:49.749Z,1.98
2019-05-22T18:56:21.094Z,2.17
2019-05-22T18:58:53.033Z,1.30
2019-05-22T19:01:24.050Z,1.52
2019-05-22T19:03:55.072Z,3.50
2019-05-22T19:06:30.319Z,2.25
2019-05-22T19:08:59.156Z,3.22
2019-05-22T19:11:30.237Z,3.75
2019-05-22T19:14:02.142Z,3.35
2019-05-22T19:16:33.983Z,1.40
2019-05-22T19:19:05.452Z,2.00
2019-05-22T19:21:36.639Z,2.15
2019-05-22T19:24:07.697Z,1.50
2019-05-22T19:26:38.784Z,1.20
2019-05-22T19:29:09.727Z,2.87
2019-05-22T19:31:40.698Z,3.95
2019-05-22T19:34:12.196Z,4.87
2019-05-22T19:36:44.386Z,2.62
2019-05-22T19:39:15.697Z,1.90
2019-05-22T19:42:01.489Z,5.22
2019-05-22T19:44:20.264Z,3.17
2019-05-22T19:46:51.759Z,3.15
2019-05-22T19:49:23.474Z,3.93
2019-05-22T19:51:56.908Z,4.67
2019-05-22T19:54:28.088Z,3.37
2019-05-22T19:56:59.284Z,3.17
2019-05-22T19:59:31.650Z,2.43
2019-05-22T20:02:03.034Z,5.60
2019-05-22T20:04:35.441Z,1.60
2019-05-22T20:07:08.244Z,2.93
2019-05-22T20:09:40.123Z,1.50
2019-05-22T20:12:12.918Z,4.30
2019-05-22T20:14:44.419Z,2.97
2019-05-22T20:17:27.698Z,6.13
2019-05-22T20:19:58.680Z,3.63
2019-05-22T20:22:29.750Z,1.50
2019-05-22T20:25:00.685Z,3.97
2019-05-22T20:27:32.220Z,3.23
2019-05-22T20:30:03.472Z,3.20
2019-05-22T20:32:35.607Z,3.60
2019-05-22T20:35:09.437Z,2.97
2019-05-22T20:37:40.831Z,4.33
2019-05-22T20:40:12.698Z,2.03
2019-05-22T20:42:44.222Z,3.13
2019-05-22T20:45:19.171Z,2.40
2019-05-22T20:47:56.705Z,1.63
2019-05-22T20:50:28.036Z,6.03
2019-05-22T20:52:59.109Z,2.17
2019-05-22T20:55:31.013Z,2.03
2019-05-22T20:58:04.079Z,3.83
2019-05-22T21:00:35.082Z,3.87
2019-05-22T21:03:08.956Z,2.37
2019-05-22T21:05:41.883Z,3.70
2019-05-22T21:08:16.248Z,2.17
2019-05-22T21:10:50.147Z,2.37
2019-05-22T21:13:21.544Z,4.37
2019-05-22T21:15:55.017Z,3.20
2019-05-22T21:18:39.606Z,2.13
2019-05-22T21:21:12.417Z,1.97
2019-05-22T21:23:43.967Z,2.50
2019-05-22T21:26:18.020Z,5.07
2019-05-22T21:28:49.689Z,5.63
2019-05-22T21:31:21.812Z,2.10
2019-05-22T21:33:52.864Z,4.33
2019-05-22T21:36:24.648Z,2.33
2019-05-22T21:38:56.108Z,1.90
2019-05-22T21:41:27.106Z,3.83
2019-05-22T21:43:58.786Z,3.23
2019-05-22T21:46:29.989Z,4.27
2019-05-22T21:49:01.497Z,2.67
2019-05-22T21:51:32.886Z,2.40
2019-05-22T21:54:06.314Z,4.40
2019-05-22T21:56:37.628Z,1.60
2019-05-22T21:59:10.562Z,5.30
2019-05-22T22:01:50.924Z,5.10
2019-05-22T22:04:26.846Z,3.13
2019-05-22T22:06:59.820Z,2.50
2019-05-22T22:09:31.964Z,2.70
2019-05-22T22:12:03.238Z,2.27
2019-05-22T22:14:34.962Z,4.47
2019-05-22T22:17:07.986Z,3.47
2019-05-22T22:19:39.051Z,2.70
2019-05-22T22:22:14.114Z,4.27
2019-05-22T22:24:45.530Z,4.47
2019-05-22T22:27:18.694Z,3.37
2019-05-22T22:29:50.268Z,4.43
2019-05-22T22:32:23.227Z,3.40
2019-05-22T22:34:54.190Z,3.77
2019-05-22T22:37:26.381Z,3.40
2019-05-22T22:39:59.129Z,3.53
2019-05-22T22:42:31.593Z,3.20
2019-05-22T22:45:05.831Z,3.90
2019-05-22T22:47:40.987Z,3.03
2019-05-22T22:50:13.065Z,3.47
2019-05-22T22:52:46.035Z,5.03
2019-05-22T22:55:20.020Z,4.77
2019-05-22T22:57:52.495Z,4.43
2019-05-22T23:00:37.937Z,3.00
2019-05-22T23:03:11.705Z,2.20
2019-05-22T23:05:44.834Z,4.47
2019-05-22T23:08:22.083Z,2.13
2019-05-22T23:10:53.275Z,3.50
2019-05-22T23:13:26.241Z,2.83
2019-05-22T23:15:58.118Z,3.10
2019-05-22T23:19:29.909Z,2.30
2019-05-22T23:22:01.278Z,4.53
2019-05-22T23:24:32.844Z,2.07
2019-05-22T23:27:06.413Z,4.73
2019-05-22T23:29:38.536Z,6.13
2019-05-22T23:32:11.876Z,3.47
2019-05-22T23:34:44.760Z,3.17
2019-05-22T23:37:19.014Z,2.30
2019-05-22T23:40:02.594Z,3.60
2019-05-22T23:42:38.573Z,3.93
2019-05-22T23:45:13.923Z,3.33
2019-05-22T23:48:03.805Z,3.20
2019-05-22T23:50:38.088Z,3.00
2019-05-22T23:53:12.401Z,3.40
2019-05-22T23:55:45.659Z,3.23
2019-05-22T23:58:20.162Z,4.97
